Timeline UpdatesTrip UpdatesNews PostsPvt Posts♥♥Travel TipsAdmin PostsConv PostsFollowed PostsChat RequestsBlog PostsPNR Posts

Disclaimer
Search
 
 
Wed Nov 26, 2014 19:27:40 ISTHomeTrainsΣChainsAtlasPNRForumGalleryNewsFAQTripsMembersLoginFeedback
No Recent News for this Train
Other Trains in the News **new
Latest...
⇐ Return Journey: Train# 54805

54806/Jaipur Ahmedabad Passenger

Time-Table HAS CHANGED.
Oct 18 2014 (7:12AM)
Change Departure Station:
Change Arrival Station:
Post a Train Travel TipPost a Train Travel Tip **new
Post a Comment/Question/Picture/VideoPost a Comment/Question/Picture/Video
Pantry/Catering
???
RSA - Rake Sharing
3 different rounds (6 services) are run by the rakes of this train. 54803 Jodhpur (JU) - Ahemedabad (ADI) becomes 54806 for Ahmedabad - Ajmer (AII) which further goes to Jaipur (JP) as 54807. 54808 comes from Jaipur to Ajmer which further goes to Ahmedabad as 54805 and becomes...
Read more...
54804 from Ahmedabad to Jodhpur.
Rake/Coach Composition
SL and GEN Coaches
Loco
News    PNR    Forum    Time-Table    Availability    Fare Chart    Map    Arr/Dep History    Trips    Gallery    ΣChains    X/O    Timeline    
Travel Time: 4h 42m    15 halts    Distance: 125 km    Avg Speed: 26 km/hr
Type: Passenger
Zone: NWR/North Western
Departs @ 22:58 (Avg 16m late)
Platform# ???
SMTWTFS
Dharewada/DRW 
Arrives @ 03:40 +1 night (Avg 7m late)
Platform# 10
SMTWTFS
Ahmedabad Junction/ADI 

15 halts. 33 intermediate Stations between Dharewada and Ahmedabad Junction

Show ALL intermediate Stations  Show Old Time-Table

#TrkCodeStation NameX/OArrivesAvgDepartsAvgHaltPFDay#KmSpeedElevZoneAddress
1|==|JPJaipur Junction (7)  -05:35+1--1-516.159434mNWRJaipur, Rajasthan
2|==|KKUKanakpura  05:44+1405:46+152m--1-507.274429mNWRJaipur, Rajasthan
3|==|SHNXSheo Singh PuraX  05:57-05:59-2m--1-493.772411mNWRJaipur, Rajasthan
4|==|JOBAsalpur Jobner  06:11+1606:13+152m--1-479.472379mNWRJaipur, Rajasthan
5|==|HDAHirnodaX  06:21+1606:23+152m--1-469.752400mNWRJaipur, Rajasthan
6|==|FLPhulera Junction (5)  06:33+1506:38+195m--1-461.046386mNWRPhulera, Rajasthan
7|==|NRINaraina  06:51+2806:53+352m--1-451.163377mNWRAjmer, Rajasthan
8|==|DTRADantraX  06:58-07:00-2m--1-445.951366mNWRMDR 85, Rajasthan
9|==|SKSakhun  07:08+3507:10+362m--1-439.159392mNWRAjmer, Rajasthan
10|==|SALISaliX  07:17-07:19-2m--1-432.270395mNWRAjmer, Rajasthan
11|==|GLTAGahlota  07:26 07:25+3507:27+371 2m--1-425.251417mNWRKishangarh, Rajasthan
12|==|TLTiloniyaX  07:32-07:34-2m--1-420.943428mNWRTiloniya, Rajasthan
13|==|KSGKishangarh (3)X  07:55 07:49+3007:57 07:51+372m--1-410.236443mNWRKishangarh, Rajasthan
14|==|GEKGegal Akhri  08:07+3708:09+362m--1-400.738459mNWRKishangarh, Rajasthan
15|==|LRLadpura (2)O  08:18+3308:20+322m--1-395.014468mNWRAjmer, Rajasthan
16|-=|MDJNMadar JunctionX  09:05 08:48+2309:07 08:50+262m--1-388.314490mNWRAjmer, Rajasthan
17|==|AIIAjmer Junction (5)  09:20+810:05+745m--1-381.437464mNWRPin: 305001, Rajasthan
18!==!DOZDaurai  10:08 10:17+1510:10 10:19+162m--1-374.038458mNWRMadar, Rajasthan
19!==!SDHSaradhnaX  10:32+1210:34+132m--1-365.748461mNWRMangaliyawas, Rajasthan
20!==!MKRAMakrera  10:40+1510:42+142m--1-360.962446mNWRKharwa, Rajasthan
21!==!MLIMangaliyawas  10:47+1510:49+172m--1-355.757430mNWRMangliyawas Railway Station, Rajasthan
22!==!LNALamana  10:54+1910:56+202m--1-351.030441mNWRBeawar, Rajasthan
23!==!KRWKharwaX  11:08+1611:10+202m--1-344.962439mNWRAjmer, Rajasthan
24!==!PPFPiplajX  11:16+2111:18+242m--1-338.735449mNWRBeawar, Rajasthan
25|--|BERBeawar (2)  11:31 11:34+2411:33 11:36+272m--1-329.249447mNWRBeawar, Rajasthan
26|--|APAAmarpura  11:40 11:43+3211:42 11:45+332m--1-323.570468mNWRKharwa, Rajasthan
27|--|SEUSendra  11:49 11:52+3511:51 11:54+372m--1-315.358427mNWRSabalpura, Rajasthan
28|--|BARBar  12:00 12:03+3912:02 12:05+402m--1-306.670383mNWRHaripur, Rajasthan
29|--|HPHaripur  12:11 12:14+3912:13 12:16+412m--1-296.068345mNWRPali, Rajasthan
30|--|GRIGuriyaO  12:20 12:23+4412:22 12:25+472m--1-288.129323mNWRPali, Rajasthan
31|--|CNLChandawal  12:46+3412:48+332m--1-277.986304mNWRPali, Rajasthan
32|--|BGXBagri SajjanpurX  12:52+3612:54+352m--1-272.250298mNWRHaripur, Rajasthan
33|--|BQNBagri Nagar  12:59+3713:01+392m--1-268.045295mNWRMarwar, Rajasthan
34|--|SODSojat Road (2)  13:08+3613:10+362m--1-262.756295mNWRSojat Road, Rajasthan
35|--|BFYBhesanaX  13:16+4013:18+412m--1-257.256285mNWRMarwar, Rajasthan
36|--|DRSDhareshwar  13:25+4013:27+442m--1-250.641275mNWRMarwar Jn, Rajasthan
37|--|MJMarwar Junction (4)X  13:40+3513:55+3115m--1-241.847267mNWRMarwar Junction, Rajasthan
38|--|AUWAAuwa (2)X  14:06+3914:08+432m--1-233.234265mNWRSomesar, Rajasthan
39|--|BGGBanta RaghunathgarhX  14:21+3814:23+382m--1-225.860266mNWRSomesar, Rajasthan
40|--|BWABhinwaliya  14:29+3914:31+402m--1-219.952268mNWRPindwara, Rajasthan
41|--|SOSSomesarX  14:38+4014:40+412m--1-213.932269mNWRSomesar, Rajasthan
42|--|JALJawali  14:56+3414:58+372m--1-205.465270mNWRRania, Rajasthan
43|--|BGPRBhagwanpuraX  15:05+3915:07+402m--1-197.840276mNWRSomesar, Rajasthan
44|--|RANIRani  15:19+3615:21+392m--1-189.855280mNWRRania, Rajasthan
45|--|KZQKhimel  15:28+3915:30+402m--1-183.448277mNWRJawai Bandh, Rajasthan
46|--|FAFalna (2)  15:47 15:40+3415:50+313 10m--1-175.380282mNWRFalna, Rajasthan
47|--|BRLYBiroliya  15:56+3615:58+402m--1-167.370294mNWRBiroliya Rd, Rajasthan
48|--|JWBJawai BandhX  16:05+4216:07+452m--1-159.138292mNWRPali, Rajasthan
49|--|MOIMori BeraX  16:22+4016:24+422m--1-149.721323mNWRNana, Rajasthan
50|--|KTRKotharX  16:42+3216:44+362m--1-143.526346mNWRPali, Rajasthan
51|--|NANANana  16:58+2917:00+312m--1-137.360355mNWRNana, Rajasthan
52!=-|KVJKeshavganj  17:09+3217:11+332m--1-128.368393mNWRJawai Bandh, Rajasthan
53!==!SOHSirohi Road (2)  17:21 17:18+3317:23 17:20+382m--1-120.367369mNWRPindwara, Rajasthan
54!==!BNSBanas  17:32 17:29+4317:34 17:31+422m--1-110.263347mNWRSirohi Road, Rajasthan
55!==!SRPJSwarupGanj  17:42 17:39+4317:44 17:41+442m--1-101.964334mNWRSirohi Road, Rajasthan
56!==!BMNBhimana  17:52 17:49+4517:54 17:51+462m--1-93.359313mNWRAbu Road, Rajasthan
57!==!KWIKivarli  18:02 17:59+4718:04 18:01+462m--1-85.459281mNWRShri Amirgadh, Rajasthan
58!==!MXOMorthala  18:11 18:07+4918:13 18:09+492m--1-79.617267mNWRNH 14, Rajasthan
59!==!ABRAbu Road (3)  18:25 18:20+3118:45 18:40+3620m--1-76.443264mNWRSirohi Dist, Rajasthan
60!==!MAAMaval  18:56 18:53+1:0018:58 18:55+1:012m--1-67.139245mNWRNational Highway 14, Rajasthan
61!==!SIMShri Amirgadh  19:06 19:08+5019:08 19:10+492m--1-58.727229mNWRAmirgadh, Gujarat
62!==!SZASarotra RoadXO  19:32 19:22+5019:34 19:24+492m--1-53.410216mNWRSarotra, Gujarat
63!==!IQGIqbal GadhX  20:07+2520:09+292m--1-45.915209mNWRBanaskantha, Gujarat
64!==!JTYJethi  20:33+1420:35+142m--1-39.744212mNWRBANASKANTHA, Gujarat
65!==!CTTChitrasani  20:41+1520:43+202m--1-35.346225mNWRChitrasani, Gujarat
66!==!KRJDKarjodaXO  20:50+2120:52+352m--1-29.96234mNWRChhapi, Gujarat
67|-=!PNUPalanpur Junction (5)  21:55+922:00+125m--1-23.872216mWRPalanpur, Gujarat
68|--|UMUmardashiXO  22:07+1022:09+232m--1-15.515187mWRChitrasani, Gujarat
69|--|CHPChhapi  22:40+822:42+162m--1-7.633169mWRBanaskantha, Gujarat
70|--|DRWDharewada»X  22:56+1122:58+162m--10.033145mWRUnjha, Gujarat
71|--|SIDSiddhpurX  23:08+1523:10+212m--15.676136mWRState Highway 41, Gujarat
72|--|KMLIKamliX  23:15+2723:17+332m--111.949126mWRChhapi, Gujarat
73|--|UJAUnjha  23:26+3423:28+522m--119.364116mWRUnjha, Gujarat
74|--|BHUBhandu Motidau  23:38+5223:40+592m--130.05197mWRMahesana, Gujarat
75|--|MSHMahesana Junction (6)  23:53+4300:30+2337m--141.15995mWRMehsana, Gujarat
76|--|JDNJagudan  00:40+3100:42+322m--250.93990mWRKochva Road, Gujarat
77|--|UMNAmbliyasanX  00:54+2901:05 00:56+3311 2m--258.82990mWRMehsana, Gujarat
78|--|DNWDangarwa  01:12+2301:14+252m--266.66683mWRJagudan, Gujarat
79|--|JULJhulasan (3)X  01:20+2601:22+472m--273.12377mWRMehsana, Gujarat
80|--|PNPansar  01:28-01:30-2m--275.46774mWRPalanpur, Gujarat
81|--|ENIsand  01:32-01:34-2m--277.73277mWRKhodiyar, Gujarat
82|--|KLLKalol (3)X  01:44+4002:00+2516m--283.06571mWRKalol, Gujarat
83/--|KHDKhodiyar  02:10-02:12-2m--293.711265mWRGandhinagar, Gujarat
84/==|CLDYChandlodiya  02:23-02:25-2m--2114.32859mWRAhmedabad, Gujarat
85/==/SBISabarmati Junction (3)  02:37-02:50 02:39-13 2m--2119.9555mWRAhmadabad, Gujarat
86/==/ADIAhmedabad Junction (12)•  03:40+7-102125.4-51mWRAhmedabad, Gujarat
Scroll to Top
Scroll to Bottom